createdAt,value
2018-06-21T00:01:45.503Z,11.53
2018-06-21T00:04:14.143Z,11.80
2018-06-21T00:06:42.768Z,12.63
2018-06-21T00:09:11.423Z,12.17
2018-06-21T00:11:41.059Z,12.37
2018-06-21T00:14:09.967Z,13.17
2018-06-21T00:16:38.589Z,13.27
2018-06-21T00:19:07.503Z,13.00
2018-06-21T00:21:36.141Z,13.13
2018-06-21T00:24:04.770Z,12.73
2018-06-21T00:26:33.415Z,12.57
2018-06-21T00:29:02.065Z,13.13
2018-06-21T00:31:30.772Z,12.37
2018-06-21T00:33:59.381Z,11.80
2018-06-21T00:36:28.346Z,12.57
2018-06-21T00:38:56.975Z,12.63
2018-06-21T00:41:25.882Z,11.93
2018-06-21T00:43:54.522Z,11.33
2018-06-21T00:46:23.157Z,10.63
2018-06-21T00:48:51.774Z,12.03
2018-06-21T00:51:21.199Z,12.07
2018-06-21T00:53:49.890Z,11.57
2018-06-21T00:56:20.515Z,11.80
2018-06-21T00:58:50.070Z,11.87
2018-06-21T01:01:19.035Z,11.63
2018-06-21T01:03:48.195Z,11.07
2018-06-21T01:06:16.873Z,11.80
2018-06-21T01:08:45.515Z,10.40
2018-06-21T01:11:14.299Z,11.07
2018-06-21T01:13:42.899Z,11.33
2018-06-21T01:16:11.822Z,10.63
2018-06-21T01:18:40.446Z,11.23
2018-06-21T01:21:09.133Z,11.30
2018-06-21T01:23:37.755Z,11.17
2018-06-21T01:26:06.630Z,11.17
2018-06-21T01:28:35.257Z,11.57
2018-06-21T01:31:03.959Z,12.37
2018-06-21T01:33:32.583Z,12.40
2018-06-21T01:36:01.791Z,11.33
2018-06-21T01:38:30.579Z,11.70
2018-06-21T01:40:59.242Z,11.53
2018-06-21T01:43:27.867Z,11.30
2018-06-21T01:45:56.508Z,11.07
2018-06-21T01:48:25.139Z,10.63
2018-06-21T01:50:53.805Z,11.87
2018-06-21T01:53:22.408Z,11.17
2018-06-21T01:55:51.053Z,10.50
2018-06-21T01:58:19.629Z,11.73
2018-06-21T02:00:48.238Z,11.83
2018-06-21T02:03:16.857Z,12.80
2018-06-21T02:05:45.752Z,12.33
2018-06-21T02:08:14.431Z,13.03
2018-06-21T02:10:43.046Z,12.83
2018-06-21T02:13:11.658Z,12.73
2018-06-21T02:15:40.550Z,14.23
2018-06-21T02:18:09.218Z,14.10
2018-06-21T02:20:37.853Z,13.87
2018-06-21T02:23:06.490Z,13.80
2018-06-21T02:25:35.156Z,13.33
2018-06-21T02:28:03.839Z,14.00
2018-06-21T02:30:32.462Z,12.87
2018-06-21T02:33:01.093Z,13.53
2018-06-21T02:35:30.328Z,13.07
2018-06-21T02:37:58.935Z,12.73
2018-06-21T02:40:27.595Z,12.10
2018-06-21T02:42:56.294Z,11.70
2018-06-21T02:45:25.232Z,12.33
2018-06-21T02:47:54.198Z,12.30
2018-06-21T02:50:22.843Z,12.67
2018-06-21T02:52:51.550Z,12.73
2018-06-21T02:55:20.247Z,15.30
2018-06-21T02:57:49.196Z,13.30
2018-06-21T03:00:18.157Z,14.50
2018-06-21T03:02:46.794Z,13.17
2018-06-21T03:05:15.693Z,13.77
2018-06-21T03:07:44.320Z,13.00
2018-06-21T03:10:12.982Z,12.40
2018-06-21T03:12:41.952Z,12.63
2018-06-21T03:15:10.885Z,12.90
2018-06-21T03:17:39.594Z,13.30
2018-06-21T03:20:08.271Z,13.33
2018-06-21T03:22:36.965Z,13.50
2018-06-21T03:25:05.623Z,13.37
2018-06-21T03:27:34.547Z,12.50
2018-06-21T03:30:03.177Z,12.30
2018-06-21T03:32:32.090Z,12.80
2018-06-21T03:35:00.760Z,13.47
2018-06-21T03:37:29.771Z,13.83
2018-06-21T03:39:58.437Z,13.43
2018-06-21T03:42:27.067Z,13.57
2018-06-21T03:44:55.705Z,14.73
2018-06-21T03:47:24.382Z,14.33
2018-06-21T03:49:52.984Z,14.53
2018-06-21T03:52:21.672Z,15.10
2018-06-21T03:54:50.688Z,15.63
2018-06-21T03:57:19.337Z,17.00
2018-06-21T03:59:47.967Z,16.83
2018-06-21T04:02:16.710Z,17.47
2018-06-21T04:04:45.354Z,16.80
2018-06-21T04:07:14.063Z,16.73
2018-06-21T04:09:42.708Z,18.03
2018-06-21T04:12:11.357Z,18.30
2018-06-21T04:14:40.124Z,17.33
2018-06-21T04:17:08.764Z,15.87
2018-06-21T04:19:37.508Z,15.10
2018-06-21T04:22:06.168Z,15.47
2018-06-21T04:24:35.107Z,14.37
2018-06-21T04:27:03.770Z,14.03
2018-06-21T04:29:32.451Z,13.93
2018-06-21T04:32:01.128Z,13.73
2018-06-21T04:34:30.458Z,13.70
2018-06-21T04:36:59.408Z,15.20
2018-06-21T04:39:28.386Z,13.93
2018-06-21T04:41:57.264Z,14.97
2018-06-21T04:44:26.086Z,14.30
2018-06-21T04:46:54.793Z,15.33
2018-06-21T04:49:23.787Z,16.57
2018-06-21T04:51:52.419Z,16.27
2018-06-21T04:54:21.103Z,15.53
2018-06-21T04:56:50.087Z,16.17
2018-06-21T04:59:18.791Z,15.73
2018-06-21T05:01:47.394Z,15.30
2018-06-21T05:04:16.350Z,15.47
2018-06-21T05:06:45.086Z,15.53
2018-06-21T05:09:14.063Z,15.53
2018-06-21T05:11:42.769Z,17.17
2018-06-21T05:14:11.424Z,15.27
2018-06-21T05:16:40.128Z,14.80
2018-06-21T05:19:08.798Z,15.07
2018-06-21T05:21:37.498Z,16.00
2018-06-21T05:24:06.371Z,15.97
2018-06-21T05:26:35.539Z,15.07
2018-06-21T05:29:04.966Z,15.27
2018-06-21T05:31:33.631Z,18.27
2018-06-21T05:34:02.254Z,18.10
2018-06-21T05:36:31.251Z,17.67
2018-06-21T05:39:00.157Z,16.10
2018-06-21T05:41:28.881Z,16.80
2018-06-21T05:43:57.531Z,17.87
2018-06-21T05:46:26.456Z,16.23
2018-06-21T05:48:55.401Z,16.17
2018-06-21T05:51:24.287Z,16.37
2018-06-21T05:53:52.991Z,17.60
2018-06-21T05:56:22.308Z,17.90
2018-06-21T05:58:50.966Z,17.57
2018-06-21T06:01:19.651Z,17.23
2018-06-21T06:03:48.848Z,15.70
2018-06-21T06:06:17.522Z,16.90
2018-06-21T06:08:46.192Z,15.30
2018-06-21T06:11:14.858Z,15.63
2018-06-21T06:13:43.514Z,14.30
2018-06-21T06:16:12.727Z,15.33
2018-06-21T06:18:41.426Z,15.77
2018-06-21T06:21:10.041Z,16.00
2018-06-21T06:23:38.636Z,14.87
2018-06-21T06:26:07.275Z,16.48
2018-06-21T06:28:36.037Z,17.23
2018-06-21T06:31:04.676Z,15.30
2018-06-21T06:33:33.324Z,15.53
2018-06-21T06:36:01.962Z,15.60
2018-06-21T06:38:30.582Z,15.40
2018-06-21T06:40:59.241Z,15.13
2018-06-21T06:43:28.161Z,14.80
2018-06-21T06:45:57.179Z,14.73
2018-06-21T06:48:26.627Z,13.38
2018-06-21T06:50:55.865Z,13.90
2018-06-21T06:53:24.821Z,13.00
2018-06-21T06:55:53.512Z,13.53
2018-06-21T06:58:22.436Z,13.05
2018-06-21T07:00:51.160Z,13.03
2018-06-21T07:03:19.763Z,13.30
2018-06-21T07:05:48.460Z,13.85
2018-06-21T07:08:19.010Z,13.60
2018-06-21T07:10:47.651Z,13.88
2018-06-21T07:13:16.287Z,13.22
2018-06-21T07:15:44.971Z,13.95
2018-06-21T07:18:13.581Z,13.55
2018-06-21T07:20:42.246Z,12.53
2018-06-21T07:23:10.882Z,12.85
2018-06-21T07:25:39.522Z,13.50
2018-06-21T07:28:08.172Z,13.13
2018-06-21T07:30:36.770Z,13.80
2018-06-21T07:33:05.412Z,13.22
2018-06-21T07:35:34.032Z,13.68
2018-06-21T07:38:02.933Z,14.60
2018-06-21T07:40:31.638Z,13.08
2018-06-21T07:43:00.306Z,12.43
2018-06-21T07:45:29.059Z,12.73
2018-06-21T07:47:58.020Z,13.20
2018-06-21T07:50:26.643Z,12.93
2018-06-21T07:52:55.251Z,13.10
2018-06-21T07:55:24.110Z,12.23
2018-06-21T07:57:52.758Z,12.95
2018-06-21T08:00:21.393Z,12.20
2018-06-21T08:02:50.404Z,13.10
2018-06-21T08:05:19.179Z,13.62
2018-06-21T08:07:47.803Z,12.25
2018-06-21T08:10:16.583Z,11.40
2018-06-21T08:12:45.255Z,12.35
2018-06-21T08:15:14.797Z,13.08
2018-06-21T08:17:43.461Z,12.03
2018-06-21T08:20:12.241Z,11.85
2018-06-21T08:22:40.867Z,11.70
2018-06-21T08:25:09.526Z,12.13
2018-06-21T08:27:38.170Z,10.88
2018-06-21T08:30:06.819Z,11.60
2018-06-21T08:32:35.452Z,10.43
2018-06-21T08:35:04.133Z,11.08
2018-06-21T08:37:32.814Z,9.93
2018-06-21T08:40:01.463Z,10.35
2018-06-21T08:42:30.134Z,12.25
2018-06-21T08:44:58.836Z,10.78
2018-06-21T08:47:27.455Z,10.30
2018-06-21T08:49:56.122Z,9.90
2018-06-21T08:52:25.755Z,10.30
2018-06-21T08:54:54.453Z,10.70
2018-06-21T08:57:23.096Z,10.25
2018-06-21T08:59:51.792Z,9.40
2018-06-21T09:02:20.431Z,9.13
2018-06-21T09:04:49.723Z,8.25
2018-06-21T09:07:18.352Z,7.70
2018-06-21T09:09:46.985Z,9.10
2018-06-21T09:12:17.550Z,8.53
2018-06-21T09:14:46.800Z,10.03
2018-06-21T09:17:15.531Z,14.93
2018-06-21T09:19:45.097Z,12.35
2018-06-21T09:22:14.046Z,7.25
2018-06-21T09:24:43.082Z,6.53
2018-06-21T09:27:12.613Z,7.20
2018-06-21T09:29:41.239Z,6.70
2018-06-21T09:32:09.884Z,7.35
2018-06-21T09:34:38.555Z,7.87
2018-06-21T09:37:07.190Z,7.62
2018-06-21T09:39:41.070Z,8.00
2018-06-21T09:42:14.962Z,7.80
2018-06-21T09:44:48.982Z,7.55
2018-06-21T09:47:22.914Z,8.28
2018-06-21T09:49:51.603Z,7.47
2018-06-21T09:52:20.615Z,8.08
2018-06-21T09:54:49.247Z,8.10
2018-06-21T09:57:18.158Z,8.40
2018-06-21T09:59:46.790Z,8.55
2018-06-21T10:02:15.452Z,7.58
2018-06-21T10:04:44.207Z,8.55
2018-06-21T10:07:13.074Z,8.90
2018-06-21T10:09:41.527Z,10.43
2018-06-21T10:12:10.342Z,12.37
2018-06-21T10:14:38.984Z,12.73
2018-06-21T10:17:08.846Z,11.57
2018-06-21T10:19:38.582Z,10.18
2018-06-21T10:22:07.526Z,11.63
2018-06-21T10:24:36.183Z,12.23
2018-06-21T10:27:04.819Z,12.37
2018-06-21T10:29:33.819Z,10.13
2018-06-21T10:32:02.442Z,9.45
2018-06-21T10:34:31.091Z,9.13
2018-06-21T10:36:59.780Z,9.73
2018-06-21T10:39:28.394Z,9.40
2018-06-21T10:41:57.065Z,8.85
2018-06-21T10:44:26.309Z,8.50
2018-06-21T10:46:55.000Z,8.70
2018-06-21T10:49:23.729Z,7.92
2018-06-21T10:51:52.374Z,8.60
2018-06-21T10:54:20.999Z,7.72
2018-06-21T10:56:49.607Z,8.20
2018-06-21T10:59:18.277Z,8.35
2018-06-21T11:01:46.875Z,8.43
2018-06-21T11:04:15.511Z,7.95
2018-06-21T11:06:44.107Z,7.55
2018-06-21T11:09:12.742Z,6.50
2018-06-21T11:11:41.342Z,6.85
2018-06-21T11:14:09.963Z,6.40
2018-06-21T11:16:38.599Z,6.40
2018-06-21T11:19:07.275Z,7.03
2018-06-21T11:21:35.911Z,7.13
2018-06-21T11:24:04.568Z,8.30
2018-06-21T11:26:33.176Z,7.50
2018-06-21T11:29:02.611Z,10.53
2018-06-21T11:31:31.191Z,8.50
2018-06-21T11:33:59.766Z,8.77
2018-06-21T11:36:28.403Z,8.20
2018-06-21T11:38:56.990Z,7.50
2018-06-21T11:41:25.695Z,8.97
2018-06-21T11:43:54.342Z,9.40
2018-06-21T11:46:22.974Z,10.23
2018-06-21T11:48:51.643Z,9.20
2018-06-21T11:51:20.239Z,10.07
2018-06-21T11:53:48.873Z,10.47
2018-06-21T11:56:17.480Z,10.40
2018-06-21T11:58:46.066Z,10.17
2018-06-21T12:01:14.691Z,10.10
2018-06-21T12:03:43.359Z,10.80
2018-06-21T12:06:12.147Z,10.00
2018-06-21T12:08:40.892Z,10.10
2018-06-21T12:11:09.523Z,10.30
2018-06-21T12:13:38.412Z,9.53
2018-06-21T12:16:07.539Z,9.00
2018-06-21T12:18:36.124Z,8.80
2018-06-21T12:21:04.717Z,11.40
2018-06-21T12:23:33.355Z,8.97
2018-06-21T12:26:02.044Z,8.70
2018-06-21T12:28:30.720Z,8.13
2018-06-21T12:30:59.436Z,8.90
2018-06-21T12:33:28.043Z,9.43
2018-06-21T12:35:56.632Z,9.40
2018-06-21T12:38:25.233Z,9.23
2018-06-21T12:40:53.822Z,9.10
2018-06-21T12:43:22.502Z,9.23
2018-06-21T12:45:51.172Z,9.27
2018-06-21T12:48:19.765Z,9.87
2018-06-21T12:50:48.432Z,8.67
2018-06-21T12:53:17.426Z,8.20
2018-06-21T12:55:46.040Z,8.10
2018-06-21T12:58:14.629Z,8.03
2018-06-21T13:00:43.366Z,7.40
2018-06-21T13:03:13.013Z,8.17
2018-06-21T13:05:41.719Z,7.47
2018-06-21T13:08:10.913Z,7.93
2018-06-21T13:10:50.807Z,6.87
2018-06-21T13:13:26.792Z,6.90
2018-06-21T13:15:55.628Z,8.03
2018-06-21T13:18:24.563Z,8.10
2018-06-21T13:20:53.487Z,9.77
2018-06-21T13:23:22.683Z,8.30
2018-06-21T13:25:52.170Z,8.33
2018-06-21T13:28:22.691Z,8.27
2018-06-21T13:30:51.895Z,8.70
2018-06-21T13:33:20.868Z,8.87
2018-06-21T13:35:49.710Z,9.50
2018-06-21T13:38:19.627Z,9.27
2018-06-21T13:40:48.450Z,8.93
2018-06-21T13:43:17.312Z,9.10
2018-06-21T13:45:46.302Z,8.27
2018-06-21T13:48:15.108Z,8.57
2018-06-21T13:50:44.263Z,9.27
2018-06-21T13:53:13.498Z,7.73
2018-06-21T13:55:42.287Z,8.73
2018-06-21T13:58:11.239Z,8.33
2018-06-21T14:00:40.215Z,7.53
2018-06-21T14:03:09.300Z,7.87
2018-06-21T14:05:38.274Z,8.10
2018-06-21T14:08:07.410Z,7.70
2018-06-21T14:10:37.830Z,8.83
2018-06-21T14:13:06.790Z,8.53
2018-06-21T14:15:36.758Z,7.80
2018-06-21T14:18:05.602Z,8.60
2018-06-21T14:20:34.812Z,7.27
2018-06-21T14:23:03.739Z,7.90
2018-06-21T14:25:32.452Z,6.53
2018-06-21T14:28:01.231Z,7.57
2018-06-21T14:30:29.983Z,7.87
2018-06-21T14:32:58.655Z,7.50
2018-06-21T14:35:28.048Z,7.90
2018-06-21T14:37:56.786Z,8.50
2018-06-21T14:40:25.727Z,8.07
2018-06-21T14:42:54.346Z,7.40
2018-06-21T14:45:23.336Z,8.53
2018-06-21T14:47:52.085Z,7.80
2018-06-21T14:50:20.858Z,7.70
2018-06-21T14:52:49.571Z,8.43
2018-06-21T14:55:18.719Z,7.97
2018-06-21T14:57:47.673Z,7.80
2018-06-21T15:00:16.683Z,7.57
2018-06-21T15:02:46.022Z,7.13
2018-06-21T15:05:14.896Z,7.63
2018-06-21T15:07:43.867Z,7.40
2018-06-21T15:10:13.210Z,7.30
2018-06-21T15:12:42.276Z,8.00
2018-06-21T15:15:11.528Z,8.40
2018-06-21T15:17:40.766Z,8.97
2018-06-21T15:20:09.796Z,8.10
2018-06-21T15:22:38.967Z,8.33
2018-06-21T15:25:07.968Z,10.33
2018-06-21T15:27:36.988Z,9.43
2018-06-21T15:30:06.313Z,9.77
2018-06-21T15:32:35.228Z,9.53
2018-06-21T15:35:04.060Z,9.50
2018-06-21T15:37:33.180Z,9.53
2018-06-21T15:40:02.274Z,9.80
2018-06-21T15:42:31.813Z,8.67
2018-06-21T15:45:00.787Z,8.87
2018-06-21T15:47:29.956Z,9.67
2018-06-21T15:49:59.002Z,8.60
2018-06-21T15:52:27.967Z,8.40
2018-06-21T15:54:57.005Z,8.53
2018-06-21T15:57:25.910Z,8.27
2018-06-21T15:59:54.776Z,8.00
2018-06-21T16:02:23.671Z,8.47
2018-06-21T16:04:52.681Z,7.83
2018-06-21T16:07:21.891Z,8.77
2018-06-21T16:09:51.342Z,8.70
2018-06-21T16:12:20.308Z,13.30
2018-06-21T16:14:49.539Z,12.57
2018-06-21T16:17:18.551Z,9.57
2018-06-21T16:19:49.166Z,8.70
2018-06-21T16:22:19.395Z,11.50
2018-06-21T16:24:48.167Z,11.10
2018-06-21T16:27:16.961Z,10.87
2018-06-21T16:29:46.150Z,12.67
2018-06-21T16:32:15.190Z,9.47
2018-06-21T16:34:44.199Z,11.53
2018-06-21T16:37:13.230Z,9.80
2018-06-21T16:39:42.333Z,8.20
2018-06-21T16:42:12.075Z,8.17
2018-06-21T16:44:40.949Z,8.23
2018-06-21T16:47:10.029Z,12.47
2018-06-21T16:49:38.669Z,9.40
2018-06-21T16:52:07.411Z,8.43
2018-06-21T16:54:36.061Z,7.87
2018-06-21T16:57:04.814Z,7.83
2018-06-21T16:59:33.434Z,8.13
2018-06-21T17:02:02.612Z,7.67
2018-06-21T17:04:31.192Z,8.53
2018-06-21T17:06:59.903Z,8.43
2018-06-21T17:09:28.553Z,8.87
2018-06-21T17:11:57.138Z,9.80
2018-06-21T17:14:25.855Z,10.07
2018-06-21T17:16:54.649Z,10.83
2018-06-21T17:19:23.290Z,10.83
2018-06-21T17:21:52.299Z,11.57
2018-06-21T17:24:21.202Z,11.30
2018-06-21T17:26:49.798Z,9.37
2018-06-21T17:29:18.459Z,10.07
2018-06-21T17:31:47.067Z,9.33
2018-06-21T17:34:15.996Z,9.60
2018-06-21T17:36:44.652Z,9.83
2018-06-21T17:39:13.242Z,9.30
2018-06-21T17:41:41.926Z,8.87
2018-06-21T17:44:10.503Z,8.80
2018-06-21T17:46:39.099Z,9.60
2018-06-21T17:49:08.067Z,8.57
2018-06-21T17:51:36.691Z,9.67
2018-06-21T17:54:05.486Z,9.53
2018-06-21T17:56:34.223Z,8.50
2018-06-21T17:59:02.946Z,9.47
2018-06-21T18:01:31.628Z,9.53
2018-06-21T18:04:01.043Z,10.07
2018-06-21T18:06:29.621Z,10.40
2018-06-21T18:08:58.264Z,9.80
2018-06-21T18:11:26.861Z,14.33
2018-06-21T18:13:55.541Z,16.77
2018-06-21T18:16:24.141Z,10.00
2018-06-21T18:18:52.807Z,8.90
2018-06-21T18:21:21.454Z,9.27
2018-06-21T18:23:51.119Z,9.17
2018-06-21T18:26:19.831Z,10.63
2018-06-21T18:28:48.729Z,9.07
2018-06-21T18:31:17.811Z,9.10
2018-06-21T18:33:46.488Z,9.67
2018-06-21T18:36:15.112Z,9.40
2018-06-21T18:38:43.724Z,10.57
2018-06-21T18:41:12.790Z,9.80
2018-06-21T18:43:41.891Z,10.40
2018-06-21T18:46:11.237Z,10.20
2018-06-21T18:48:40.020Z,11.43
2018-06-21T18:51:08.864Z,11.63
2018-06-21T18:53:37.528Z,11.23
2018-06-21T18:56:06.337Z,11.73
2018-06-21T18:58:35.009Z,15.67
2018-06-21T19:01:04.619Z,14.20
2018-06-21T19:03:33.353Z,11.43
2018-06-21T19:06:02.552Z,10.90
2018-06-21T19:08:36.478Z,15.83
2018-06-21T19:11:11.942Z,9.70
2018-06-21T19:13:44.559Z,9.30
2018-06-21T19:16:14.164Z,9.07
2018-06-21T19:18:42.941Z,10.33
2018-06-21T19:21:12.168Z,10.00
2018-06-21T19:23:40.938Z,8.57
2018-06-21T19:26:10.266Z,10.03
2018-06-21T19:28:39.404Z,9.30
2018-06-21T19:31:08.143Z,9.07
2018-06-21T19:33:36.791Z,8.80
2018-06-21T19:36:05.612Z,9.30
2018-06-21T19:38:34.247Z,8.87
2018-06-21T19:41:02.878Z,9.23
2018-06-21T19:43:31.541Z,10.20
2018-06-21T19:46:00.178Z,9.63
2018-06-21T19:48:28.859Z,9.53
2018-06-21T19:50:57.664Z,9.27
2018-06-21T19:53:26.282Z,10.13
2018-06-21T19:55:54.914Z,9.93
2018-06-21T19:58:23.756Z,10.50
2018-06-21T20:00:52.384Z,10.70
2018-06-21T20:03:21.203Z,10.70
2018-06-21T20:05:49.731Z,10.30
2018-06-21T20:08:18.842Z,8.40
2018-06-21T20:10:51.748Z,8.63
2018-06-21T20:13:20.536Z,8.90
2018-06-21T20:15:52.608Z,9.43
2018-06-21T20:18:22.380Z,10.37
2018-06-21T20:20:51.154Z,9.07
2018-06-21T20:23:20.818Z,9.00
2018-06-21T20:25:49.849Z,8.70
2018-06-21T20:28:18.492Z,9.07
2018-06-21T20:30:47.146Z,9.10
2018-06-21T20:33:15.788Z,9.30
2018-06-21T20:35:44.696Z,9.13
2018-06-21T20:38:13.650Z,10.93
2018-06-21T20:40:42.234Z,10.43
2018-06-21T20:43:11.504Z,11.07
2018-06-21T20:45:40.840Z,12.23
2018-06-21T20:48:09.630Z,12.33
2018-06-21T20:50:38.930Z,13.17
2018-06-21T20:53:07.502Z,12.10
2018-06-21T20:55:36.903Z,12.00
2018-06-21T20:58:05.526Z,12.67
2018-06-21T21:00:34.200Z,13.47
2018-06-21T21:03:02.868Z,11.80
2018-06-21T21:05:31.553Z,11.63
2018-06-21T21:08:00.163Z,12.43
2018-06-21T21:10:28.780Z,12.67
2018-06-21T21:12:57.570Z,13.23
2018-06-21T21:15:26.248Z,12.97
2018-06-21T21:17:54.863Z,12.17
2018-06-21T21:20:23.443Z,13.37
2018-06-21T21:22:52.420Z,13.00
2018-06-21T21:25:21.030Z,12.93
2018-06-21T21:27:49.990Z,13.33
2018-06-21T21:30:18.880Z,12.67
2018-06-21T21:32:47.546Z,12.20
2018-06-21T21:35:16.132Z,13.47
2018-06-21T21:37:44.725Z,13.17
2018-06-21T21:40:13.360Z,13.33
2018-06-21T21:42:41.997Z,13.73
2018-06-21T21:45:10.608Z,12.83
2018-06-21T21:47:39.195Z,11.37
2018-06-21T21:50:08.290Z,11.17
2018-06-21T21:52:36.985Z,11.77
2018-06-21T21:55:05.631Z,10.53
2018-06-21T21:57:34.278Z,10.27
2018-06-21T22:00:03.202Z,10.20
2018-06-21T22:02:31.807Z,10.60
2018-06-21T22:05:01.911Z,11.30
2018-06-21T22:07:30.906Z,11.13
2018-06-21T22:09:59.493Z,10.57
2018-06-21T22:12:28.127Z,10.70
2018-06-21T22:14:56.760Z,11.33
2018-06-21T22:17:25.465Z,12.10
2018-06-21T22:19:54.108Z,12.10
2018-06-21T22:22:22.805Z,11.73
2018-06-21T22:24:51.388Z,12.50
2018-06-21T22:27:19.962Z,11.97
2018-06-21T22:29:48.571Z,11.90
2018-06-21T22:32:17.169Z,11.53
2018-06-21T22:34:45.828Z,11.67
2018-06-21T22:37:14.370Z,11.03
2018-06-21T22:39:43.026Z,12.13
2018-06-21T22:42:11.671Z,11.37
2018-06-21T22:44:40.269Z,11.97
2018-06-21T22:47:08.864Z,12.07
2018-06-21T22:49:37.523Z,12.23
2018-06-21T22:52:06.461Z,11.63
2018-06-21T22:54:35.100Z,11.40
2018-06-21T22:57:03.722Z,11.67
2018-06-21T22:59:32.348Z,11.23
2018-06-21T23:02:00.905Z,11.23
2018-06-21T23:04:29.552Z,11.47
2018-06-21T23:06:58.200Z,12.03
2018-06-21T23:09:27.012Z,11.77
2018-06-21T23:11:55.590Z,11.50
2018-06-21T23:14:24.218Z,12.60
2018-06-21T23:16:55.158Z,12.30
2018-06-21T23:19:29.931Z,12.03
2018-06-21T23:21:58.931Z,12.23
2018-06-21T23:24:27.819Z,11.47
2018-06-21T23:26:56.443Z,11.47
2018-06-21T23:29:25.276Z,12.37
2018-06-21T23:31:53.883Z,12.33
2018-06-21T23:34:23.204Z,11.57
2018-06-21T23:36:52.068Z,11.97
2018-06-21T23:39:20.671Z,11.00
2018-06-21T23:41:49.363Z,12.13
2018-06-21T23:44:17.948Z,12.70
2018-06-21T23:46:46.557Z,12.27
2018-06-21T23:49:15.203Z,13.20
2018-06-21T23:51:43.778Z,13.43
2018-06-21T23:54:13.584Z,13.03
2018-06-21T23:56:43.163Z,13.67
2018-06-21T23:59:11.875Z,14.33
